sensor_id;sensor_type;location;lat;lon;timestamp;temperature;humidity
19342;DHT22;9807;48.258;12.690;2022-11-09T01:34:02;10.40;99.90
19342;DHT22;9807;48.258;12.690;2022-11-09T01:36:34;10.50;99.90
19342;DHT22;9807;48.258;12.690;2022-11-09T01:39:00;10.60;99.90
19342;DHT22;9807;48.258;12.690;2022-11-09T01:41:29;10.50;99.90
19342;DHT22;9807;48.258;12.690;2022-11-09T01:49:41;10.50;99.90
19342;DHT22;9807;48.258;12.690;2022-11-09T01:52:24;10.50;99.90
19342;DHT22;9807;48.258;12.690;2022-11-09T01:55:02;10.50;99.90
19342;DHT22;9807;48.258;12.690;2022-11-09T01:57:41;10.50;99.90
19342;DHT22;9807;48.258;12.690;2022-11-09T02:00:12;10.50;99.90
19342;DHT22;9807;48.258;12.690;2022-11-09T02:02:45;10.50;99.90
19342;DHT22;9807;48.258;12.690;2022-11-09T02:05:15;10.50;99.90
19342;DHT22;9807;48.258;12.690;2022-11-09T02:07:43;10.50;99.90
19342;DHT22;9807;48.258;12.690;2022-11-09T02:10:36;10.50;99.90
19342;DHT22;9807;48.258;12.690;2022-11-09T02:13:03;10.50;99.90
19342;DHT22;9807;48.258;12.690;2022-11-09T02:15:31;10.50;99.90
19342;DHT22;9807;48.258;12.690;2022-11-09T02:18:02;10.40;99.90
19342;DHT22;9807;48.258;12.690;2022-11-09T02:20:50;10.50;99.90
19342;DHT22;9807;48.258;12.690;2022-11-09T02:23:26;10.50;99.90
19342;DHT22;9807;48.258;12.690;2022-11-09T02:26:02;10.50;99.90
19342;DHT22;9807;48.258;12.690;2022-11-09T02:28:30;10.40;99.90
19342;DHT22;9807;48.258;12.690;2022-11-09T02:30:57;10.40;99.90
19342;DHT22;9807;48.258;12.690;2022-11-09T02:33:24;10.40;99.90
19342;DHT22;9807;48.258;12.690;2022-11-09T02:35:59;10.50;99.90
19342;DHT22;9807;48.258;12.690;2022-11-09T02:38:35;10.40;99.90
19342;DHT22;9807;48.258;12.690;2022-11-09T02:41:04;10.40;99.90
19342;DHT22;9807;48.258;12.690;2022-11-09T02:43:34;10.40;99.90
19342;DHT22;9807;48.258;12.690;2022-11-09T02:46:04;10.30;99.90
19342;DHT22;9807;48.258;12.690;2022-11-09T02:48:33;10.40;99.90
19342;DHT22;9807;48.258;12.690;2022-11-09T02:50:59;10.30;99.90
19342;DHT22;9807;48.258;12.690;2022-11-09T02:53:25;10.40;99.90
19342;DHT22;9807;48.258;12.690;2022-11-09T02:55:51;10.40;99.90
19342;DHT22;9807;48.258;12.690;2022-11-09T02:58:18;10.30;99.90
19342;DHT22;9807;48.258;12.690;2022-11-09T03:00:47;10.30;99.90
19342;DHT22;9807;48.258;12.690;2022-11-09T03:03:14;10.30;99.90
19342;DHT22;9807;48.258;12.690;2022-11-09T03:05:40;10.30;99.90
19342;DHT22;9807;48.258;12.690;2022-11-09T03:08:09;10.30;99.90
19342;DHT22;9807;48.258;12.690;2022-11-09T03:10:35;10.20;99.90
19342;DHT22;9807;48.258;12.690;2022-11-09T03:13:01;10.30;99.90
19342;DHT22;9807;48.258;12.690;2022-11-09T03:15:29;10.20;99.90
19342;DHT22;9807;48.258;12.690;2022-11-09T03:17:55;10.20;99.90
19342;DHT22;9807;48.258;12.690;2022-11-09T03:20:21;10.20;99.90
19342;DHT22;9807;48.258;12.690;2022-11-09T03:22:48;10.30;99.90
19342;DHT22;9807;48.258;12.690;2022-11-09T03:25:14;10.20;99.90
19342;DHT22;9807;48.258;12.690;2022-11-09T03:27:40;10.20;99.90
19342;DHT22;9807;48.258;12.690;2022-11-09T03:30:08;10.30;99.90
19342;DHT22;9807;48.258;12.690;2022-11-09T03:32:35;10.30;99.90
19342;DHT22;9807;48.258;12.690;2022-11-09T03:35:01;10.30;99.90
19342;DHT22;9807;48.258;12.690;2022-11-09T03:37:34;10.30;99.90
19342;DHT22;9807;48.258;12.690;2022-11-09T03:40:00;10.20;99.90
19342;DHT22;9807;48.258;12.690;2022-11-09T03:42:26;10.20;99.90
19342;DHT22;9807;48.258;12.690;2022-11-09T03:44:53;10.20;99.90
19342;DHT22;9807;48.258;12.690;2022-11-09T03:47:19;10.20;99.90
19342;DHT22;9807;48.258;12.690;2022-11-09T03:49:45;10.20;99.90
19342;DHT22;9807;48.258;12.690;2022-11-09T03:52:13;10.20;99.90
19342;DHT22;9807;48.258;12.690;2022-11-09T03:54:41;10.20;99.90
19342;DHT22;9807;48.258;12.690;2022-11-09T03:57:07;10.10;99.90
19342;DHT22;9807;48.258;12.690;2022-11-09T03:59:33;10.10;99.90
19342;DHT22;9807;48.258;12.690;2022-11-09T04:02:00;10.20;99.90
19342;DHT22;9807;48.258;12.690;2022-11-09T04:04:26;10.20;99.90
19342;DHT22;9807;48.258;12.690;2022-11-09T04:06:55;10.20;99.90
19342;DHT22;9807;48.258;12.690;2022-11-09T04:09:25;10.20;99.90
19342;DHT22;9807;48.258;12.690;2022-11-09T04:11:50;10.20;99.90
19342;DHT22;9807;48.258;12.690;2022-11-09T04:14:19;10.20;99.90
19342;DHT22;9807;48.258;12.690;2022-11-09T04:16:45;10.20;99.90
19342;DHT22;9807;48.258;12.690;2022-11-09T04:19:12;10.20;99.90
19342;DHT22;9807;48.258;12.690;2022-11-09T04:21:41;10.20;99.90
19342;DHT22;9807;48.258;12.690;2022-11-09T04:24:08;10.20;99.90
19342;DHT22;9807;48.258;12.690;2022-11-09T04:26:35;10.20;99.90
19342;DHT22;9807;48.258;12.690;2022-11-09T04:29:01;10.20;99.90
19342;DHT22;9807;48.258;12.690;2022-11-09T04:31:29;10.20;99.90
19342;DHT22;9807;48.258;12.690;2022-11-09T04:33:59;10.20;99.90
19342;DHT22;9807;48.258;12.690;2022-11-09T04:36:25;10.20;99.90
19342;DHT22;9807;48.258;12.690;2022-11-09T04:38:51;10.20;99.90
19342;DHT22;9807;48.258;12.690;2022-11-09T04:41:17;10.20;99.90
19342;DHT22;9807;48.258;12.690;2022-11-09T05:32:56;10.10;99.90
19342;DHT22;9807;48.258;12.690;2022-11-09T05:35:24;10.10;99.90
19342;DHT22;9807;48.258;12.690;2022-11-09T05:37:50;10.10;99.90
19342;DHT22;9807;48.258;12.690;2022-11-09T05:40:17;10.10;99.90
19342;DHT22;9807;48.258;12.690;2022-11-09T05:42:43;10.20;99.90
19342;DHT22;9807;48.258;12.690;2022-11-09T05:45:14;10.10;99.90
19342;DHT22;9807;48.258;12.690;2022-11-09T05:47:42;10.10;99.90
19342;DHT22;9807;48.258;12.690;2022-11-09T05:50:12;10.20;99.90
19342;DHT22;9807;48.258;12.690;2022-11-09T05:52:39;10.10;99.90
19342;DHT22;9807;48.258;12.690;2022-11-09T05:55:13;10.10;99.90
19342;DHT22;9807;48.258;12.690;2022-11-09T05:57:41;10.20;99.90
19342;DHT22;9807;48.258;12.690;2022-11-09T06:00:14;10.20;99.90
19342;DHT22;9807;48.258;12.690;2022-11-09T06:03:00;10.20;99.90
19342;DHT22;9807;48.258;12.690;2022-11-09T06:05:25;10.20;99.90
19342;DHT22;9807;48.258;12.690;2022-11-09T06:07:52;10.20;99.90
19342;DHT22;9807;48.258;12.690;2022-11-09T06:10:22;10.20;99.90
19342;DHT22;9807;48.258;12.690;2022-11-09T06:12:51;10.20;99.90
19342;DHT22;9807;48.258;12.690;2022-11-09T06:15:18;10.20;99.90
19342;DHT22;9807;48.258;12.690;2022-11-09T06:17:53;10.20;99.90
19342;DHT22;9807;48.258;12.690;2022-11-09T06:20:21;10.30;99.90
19342;DHT22;9807;48.258;12.690;2022-11-09T06:22:59;10.20;99.90
19342;DHT22;9807;48.258;12.690;2022-11-09T06:28:38;10.30;99.90
19342;DHT22;9807;48.258;12.690;2022-11-09T06:31:05;10.30;99.90
19342;DHT22;9807;48.258;12.690;2022-11-09T06:33:34;10.30;99.90
19342;DHT22;9807;48.258;12.690;2022-11-09T06:36:00;10.20;99.90
19342;DHT22;9807;48.258;12.690;2022-11-09T06:39:06;10.10;99.90
19342;DHT22;9807;48.258;12.690;2022-11-09T06:41:34;10.20;99.90
19342;DHT22;9807;48.258;12.690;2022-11-09T06:44:00;10.10;99.90
19342;DHT22;9807;48.258;12.690;2022-11-09T06:46:26;10.10;99.90
19342;DHT22;9807;48.258;12.690;2022-11-09T06:48:59;10.20;99.90
19342;DHT22;9807;48.258;12.690;2022-11-09T06:51:25;10.20;99.90
19342;DHT22;9807;48.258;12.690;2022-11-09T06:53:54;10.10;99.90
19342;DHT22;9807;48.258;12.690;2022-11-09T06:56:20;10.20;99.90
19342;DHT22;9807;48.258;12.690;2022-11-09T06:58:46;10.20;99.90
19342;DHT22;9807;48.258;12.690;2022-11-09T07:01:17;10.20;99.90
19342;DHT22;9807;48.258;12.690;2022-11-09T07:03:47;10.20;99.90
19342;DHT22;9807;48.258;12.690;2022-11-09T07:06:29;10.30;99.90
19342;DHT22;9807;48.258;12.690;2022-11-09T07:09:13;10.20;99.90
19342;DHT22;9807;48.258;12.690;2022-11-09T07:11:56;10.20;99.90
19342;DHT22;9807;48.258;12.690;2022-11-09T18:44:00;11.80;99.90
19342;DHT22;9807;48.258;12.690;2022-11-09T18:46:26;11.80;99.90
19342;DHT22;9807;48.258;12.690;2022-11-09T18:48:55;11.80;99.90
19342;DHT22;9807;48.258;12.690;2022-11-09T18:51:21;11.80;99.90
19342;DHT22;9807;48.258;12.690;2022-11-09T18:53:48;11.70;99.90
19342;DHT22;9807;48.258;12.690;2022-11-09T20:09:34;11.50;99.90
19342;DHT22;9807;48.258;12.690;2022-11-09T20:12:01;11.50;99.90
19342;DHT22;9807;48.258;12.690;2022-11-09T20:14:46;11.60;99.90
19342;DHT22;9807;48.258;12.690;2022-11-09T20:17:11;11.50;99.90
19342;DHT22;9807;48.258;12.690;2022-11-09T20:19:37;11.30;99.90
19342;DHT22;9807;48.258;12.690;2022-11-09T20:22:06;11.20;99.90
19342;DHT22;9807;48.258;12.690;2022-11-09T20:24:32;11.00;99.90
19342;DHT22;9807;48.258;12.690;2022-11-09T20:26:58;11.00;99.90
19342;DHT22;9807;48.258;12.690;2022-11-09T20:29:24;10.90;99.90
19342;DHT22;9807;48.258;12.690;2022-11-09T20:34:26;10.90;99.90
19342;DHT22;9807;48.258;12.690;2022-11-09T20:36:54;11.10;99.90
19342;DHT22;9807;48.258;12.690;2022-11-09T20:39:20;11.30;99.90
19342;DHT22;9807;48.258;12.690;2022-11-09T20:41:45;11.40;99.90
19342;DHT22;9807;48.258;12.690;2022-11-09T20:44:11;11.50;99.90
19342;DHT22;9807;48.258;12.690;2022-11-09T20:46:37;11.60;99.90
19342;DHT22;9807;48.258;12.690;2022-11-09T20:49:04;11.70;99.90
19342;DHT22;9807;48.258;12.690;2022-11-09T20:51:30;11.70;99.90
19342;DHT22;9807;48.258;12.690;2022-11-09T20:53:57;11.80;99.90
19342;DHT22;9807;48.258;12.690;2022-11-09T20:56:23;11.70;99.90
19342;DHT22;9807;48.258;12.690;2022-11-09T20:58:49;11.40;99.90
19342;DHT22;9807;48.258;12.690;2022-11-09T21:01:18;11.50;99.90
19342;DHT22;9807;48.258;12.690;2022-11-09T21:03:45;11.50;99.90
19342;DHT22;9807;48.258;12.690;2022-11-09T21:06:12;11.40;99.90
19342;DHT22;9807;48.258;12.690;2022-11-09T21:08:38;11.40;99.90
19342;DHT22;9807;48.258;12.690;2022-11-09T21:11:06;11.50;99.90
19342;DHT22;9807;48.258;12.690;2022-11-09T21:13:32;11.60;99.90
19342;DHT22;9807;48.258;12.690;2022-11-09T21:16:05;11.60;99.90
19342;DHT22;9807;48.258;12.690;2022-11-09T21:18:32;11.50;99.90
19342;DHT22;9807;48.258;12.690;2022-11-09T21:21:09;11.50;99.90
19342;DHT22;9807;48.258;12.690;2022-11-09T21:23:36;11.60;99.90
19342;DHT22;9807;48.258;12.690;2022-11-09T21:26:20;11.70;99.90
19342;DHT22;9807;48.258;12.690;2022-11-09T21:29:11;11.70;99.90
19342;DHT22;9807;48.258;12.690;2022-11-09T21:31:55;11.80;99.90
19342;DHT22;9807;48.258;12.690;2022-11-09T21:34:21;11.70;99.90
19342;DHT22;9807;48.258;12.690;2022-11-09T21:36:47;11.70;99.90
19342;DHT22;9807;48.258;12.690;2022-11-09T21:39:13;11.70;99.90
19342;DHT22;9807;48.258;12.690;2022-11-09T21:41:43;11.60;99.90
19342;DHT22;9807;48.258;12.690;2022-11-09T21:44:10;11.60;99.90
19342;DHT22;9807;48.258;12.690;2022-11-09T21:46:38;11.60;99.90
19342;DHT22;9807;48.258;12.690;2022-11-09T21:49:05;11.70;99.90
19342;DHT22;9807;48.258;12.690;2022-11-09T21:51:33;11.70;99.90
19342;DHT22;9807;48.258;12.690;2022-11-09T21:53:59;11.70;99.90
19342;DHT22;9807;48.258;12.690;2022-11-09T21:56:26;11.70;99.90
